Aérodrome :
LOGIN :

S'inscrire | Disclaimer

   EN    FR    IT 

 










Légende :    VFR   VFR Marginal   IFR   IFR Intensif   IFR Très Intensif
Visi : 
Plafond : 
>= 8 km
>= 3000ft
5 à 8 km
1000 à 3000 ft
1500m à 5 km
500 à 1000 ft
800 à 1500m
200 à 500 ft
< 800m
< 200 ft
Symboles :   Orages  Brouillard  Fortes neiges  Fortes précipitations  Vent > 20 kt
SIGMETs :   Divers  Orages  Givrage  Turbulence  Onde Orograph.  Cendres Volcan.






- Altitude de l'aérodrome : 285 ft
- Code IATA : GOZ


LBGO - Gorna Oryahovitsa

DERNIER METAR :
  • 272130Z AUTO 29016KT 9999 OVC055 06/M01 Q1009

METARs EXPIRÉS :
  • 272100Z AUTO 28016KT 9999 BKN049 OVC058 06/M02 Q1009
  • 272030Z AUTO 28017KT 9999 -SHRA BKN042 OVC054 06/M02 Q1008
  • 272000Z AUTO 29020G30KT 9999 -SHRA SCT039 OVC051 06/M00 Q1008
  • 271930Z AUTO 28018KT 9999 OVC040 06/M01 Q1008
  • 271900Z AUTO 27017KT 9999 OVC042 06/M01 Q1007

TAF TAF LBGO
Valide du 27 à 18h jusqu'au 28 à 18h UTC


271700Z 2718/2818 29012KT 9999 BKN045
BECMG 2800/2802 VRB04KT NSC
TEMPO 2802/2806 3000 BR
BECMG 2812/2814 29012KT SCT020 BKN040
TEMPO 2814/2818 5000 RA BKN020 OVC040



MET'MAP, la Météo Aéronautique d'un coup d'oeil ! - Copyright ORBIFLY Décembre 2007 - Disclaimer

ORBIFLY MET'MAP TEAM :

Programmation & Développement : Alexandra Zaïnal
Sur une idée originale de : Baudouin d'Aumeries
Assistance à la programmation : Marc-Olivier Méhu
Soutien technique & logistique : Manuel Goepfert

Contact : metmap@orbifly.com




SOURCES & CREDITS :

   NOAA